Time;durP1;ratioP1;P1;durP2;ratioP2;P2;SDS_P1;SDS_P2;PMS_P1;PMS_P2;Temp;Humidity;BMP_temperature;BMP_pressure;BME280_temperature;BME280_humidity;BME280_pressure;Samples;Min_cycle;Max_cycle;Signal;HPM_P1;HPM_P2
2024/01/01 00:00:50;;;;;;;248.45;120.88;;;;;;;;;;4997398;28;20145;-67
2024/01/01 00:03:15;;;;;;;203.20;102.63;;;;;;;;;;4998446;28;20111;-68
2024/01/01 00:05:40;;;;;;;144.88;66.05;;;;;;;;;;4997522;28;20156;-66
2024/01/01 00:08:07;;;;;;;101.50;49.60;;;;;;;;;;4996383;28;20511;-68
2024/01/01 00:10:32;;;;;;;77.55;37.80;;;;;;;;;;4998159;28;20053;-68
2024/01/01 00:12:57;;;;;;;97.70;46.03;;;;;;;;;;4997506;28;20046;-66
2024/01/01 00:15:23;;;;;;;139.88;67.80;;;;;;;;;;4998062;28;20048;-68
2024/01/01 00:17:48;;;;;;;114.35;53.28;;;;;;;;;;4996061;28;20034;-67
2024/01/01 00:20:13;;;;;;;127.00;58.10;;;;;;;;;;4997981;28;20878;-68
2024/01/01 00:22:39;;;;;;;140.55;67.03;;;;;;;;;;4998212;28;20057;-68
2024/01/01 00:25:04;;;;;;;110.03;51.13;;;;;;;;;;4997251;28;20042;-69
2024/01/01 00:27:33;;;;;;;129.07;64.03;;;;;;;;;;4997629;28;20236;-65
2024/01/01 00:30:00;;;;;;;170.50;82.78;;;;;;;;;;4994868;28;20041;-68
2024/01/01 00:32:25;;;;;;;212.05;101.88;;;;;;;;;;4995199;28;20041;-67
2024/01/01 00:34:51;;;;;;;209.18;102.97;;;;;;;;;;4995731;28;20061;-68
2024/01/01 00:37:16;;;;;;;175.45;81.53;;;;;;;;;;4995852;28;20388;-65
2024/01/01 00:39:42;;;;;;;140.20;70.78;;;;;;;;;;4996166;28;20089;-68
2024/01/01 00:42:08;;;;;;;143.63;69.43;;;;;;;;;;4996020;28;20130;-68
2024/01/01 00:44:33;;;;;;;123.65;59.53;;;;;;;;;;4994822;28;20142;-68
2024/01/01 00:46:59;;;;;;;117.93;52.72;;;;;;;;;;4994509;28;20069;-66
2024/01/01 00:49:24;;;;;;;96.60;44.10;;;;;;;;;;4996674;28;20084;-65
2024/01/01 00:51:50;;;;;;;96.05;45.35;;;;;;;;;;4994626;28;20112;-68
2024/01/01 00:54:16;;;;;;;68.93;32.92;;;;;;;;;;4997833;28;20161;-68
2024/01/01 00:56:41;;;;;;;65.07;27.92;;;;;;;;;;4996898;28;20052;-67
2024/01/01 00:59:07;;;;;;;48.80;23.95;;;;;;;;;;4995171;28;20053;-67
2024/01/01 01:01:32;;;;;;;45.97;21.75;;;;;;;;;;4994786;28;20764;-68
2024/01/01 01:03:58;;;;;;;37.47;19.42;;;;;;;;;;4993635;28;20058;-68
2024/01/01 01:06:23;;;;;;;39.42;19.70;;;;;;;;;;4996155;28;20052;-68
2024/01/01 01:08:49;;;;;;;30.00;18.23;;;;;;;;;;4995246;28;20053;-67
2024/01/01 01:11:14;;;;;;;39.05;17.83;;;;;;;;;;4994816;28;20110;-67
2024/01/01 01:13:39;;;;;;;29.65;15.88;;;;;;;;;;4994384;28;20425;-68
2024/01/01 01:16:05;;;;;;;28.35;15.65;;;;;;;;;;4993168;28;20059;-66
2024/01/01 01:18:30;;;;;;;25.42;13.27;;;;;;;;;;4993605;28;20049;-67
2024/01/01 01:20:56;;;;;;;24.38;11.93;;;;;;;;;;4994211;28;20037;-65
2024/01/01 01:23:21;;;;;;;22.98;9.40;;;;;;;;;;4995957;28;20074;-68
2024/01/01 01:25:46;;;;;;;16.92;8.73;;;;;;;;;;4995300;28;20053;-65
2024/01/01 01:28:20;;;;;;;15.60;8.75;;;;;;;;;;4994901;28;20042;-68
2024/01/01 01:30:46;;;;;;;13.50;7.55;;;;;;;;;;4996045;28;20052;-68
2024/01/01 01:33:11;;;;;;;10.77;5.95;;;;;;;;;;4994346;28;20049;-68
2024/01/01 01:35:37;;;;;;;3.17;2.83;;;;;;;;;;4997449;28;20040;-68
2024/01/01 01:38:02;;;;;;;4.20;2.92;;;;;;;;;;4994079;28;20097;-68
2024/01/01 01:40:27;;;;;;;6.35;3.50;;;;;;;;;;4995832;28;20092;-66
2024/01/01 01:42:53;;;;;;;2.88;1.83;;;;;;;;;;4995576;28;20133;-66
2024/01/01 01:45:18;;;;;;;2.78;2.28;;;;;;;;;;5011104;28;20474;-65
2024/01/01 01:47:44;;;;;;;4.57;3.47;;;;;;;;;;4996655;28;20030;-67
2024/01/01 01:50:09;;;;;;;4.65;3.33;;;;;;;;;;4994545;28;20503;-66
2024/01/01 01:52:37;;;;;;;3.03;2.25;;;;;;;;;;4995456;28;20088;-65
2024/01/01 01:55:03;;;;;;;5.97;3.83;;;;;;;;;;4993694;28;20049;-67
2024/01/01 01:57:29;;;;;;;5.35;3.40;;;;;;;;;;4995232;28;20054;-68
2024/01/01 01:59:54;;;;;;;4.70;3.50;;;;;;;;;;4994361;28;20054;-67
2024/01/01 02:02:23;;;;;;;6.07;4.65;;;;;;;;;;4995773;28;20886;-66
2024/01/01 02:04:50;;;;;;;9.25;4.93;;;;;;;;;;4996271;28;20147;-65
2024/01/01 02:07:15;;;;;;;3.58;3.00;;;;;;;;;;4994696;28;20069;-67
2024/01/01 02:09:41;;;;;;;3.10;2.78;;;;;;;;;;4980072;28;20077;-67
2024/01/01 02:12:08;;;;;;;4.00;2.72;;;;;;;;;;4993827;28;21544;-67
2024/01/01 02:14:34;;;;;;;6.03;3.80;;;;;;;;;;4995242;28;20042;-65
2024/01/01 02:17:00;;;;;;;4.68;3.45;;;;;;;;;;4998708;28;20053;-66
2024/01/01 02:19:26;;;;;;;6.57;4.28;;;;;;;;;;4998850;28;20081;-65
2024/01/01 02:21:53;;;;;;;6.05;3.65;;;;;;;;;;5014390;28;20490;-67
2024/01/01 02:24:20;;;;;;;3.17;2.75;;;;;;;;;;5000112;28;20049;-67
2024/01/01 02:26:47;;;;;;;8.40;3.95;;;;;;;;;;4997658;28;20084;-68
2024/01/01 02:29:13;;;;;;;6.43;4.35;;;;;;;;;;4998486;28;20625;-67
2024/01/01 02:31:39;;;;;;;8.27;3.63;;;;;;;;;;5000053;28;20053;-66
2024/01/01 02:34:04;;;;;;;5.15;3.03;;;;;;;;;;4998627;28;20046;-65
2024/01/01 02:36:35;;;;;;;4.28;2.97;;;;;;;;;;4998312;28;20057;-67
2024/01/01 02:39:01;;;;;;;6.22;3.45;;;;;;;;;;4997312;28;20120;-67
2024/01/01 02:41:26;;;;;;;4.18;3.25;;;;;;;;;;4998251;28;20491;-67
2024/01/01 02:43:52;;;;;;;4.97;3.15;;;;;;;;;;4999247;28;20050;-67
2024/01/01 02:46:17;;;;;;;3.35;2.70;;;;;;;;;;4980841;28;20072;-65
2024/01/01 02:48:42;;;;;;;3.25;2.47;;;;;;;;;;4997386;28;20050;-67
2024/01/01 02:51:08;;;;;;;3.80;2.83;;;;;;;;;;4999497;28;20049;-66
2024/01/01 02:53:34;;;;;;;7.85;2.35;;;;;;;;;;4999435;28;20069;-67
2024/01/01 02:55:59;;;;;;;2.78;1.88;;;;;;;;;;4998471;28;20065;-67
2024/01/01 02:58:25;;;;;;;3.15;2.22;;;;;;;;;;4997870;28;20049;-68
2024/01/01 03:00:50;;;;;;;3.25;2.33;;;;;;;;;;4997161;28;20125;-64
2024/01/01 03:03:17;;;;;;;4.85;2.17;;;;;;;;;;4999190;28;20046;-67
2024/01/01 03:05:43;;;;;;;3.55;2.15;;;;;;;;;;4998015;28;20144;-68
2024/01/01 03:08:09;;;;;;;3.08;2.53;;;;;;;;;;4997991;28;20049;-66
2024/01/01 03:10:35;;;;;;;2.60;2.08;;;;;;;;;;4997310;28;20045;-65
2024/01/01 03:13:00;;;;;;;3.13;2.03;;;;;;;;;;4998559;28;20049;-65
2024/01/01 03:15:26;;;;;;;2.63;2.25;;;;;;;;;;4997851;28;20061;-67
2024/01/01 03:17:52;;;;;;;7.00;2.30;;;;;;;;;;4998311;28;21071;-67
2024/01/01 03:20:18;;;;;;;7.30;3.25;;;;;;;;;;4998530;28;20066;-67
2024/01/01 03:22:45;;;;;;;1.88;1.70;;;;;;;;;;5012938;28;20045;-67
2024/01/01 03:25:10;;;;;;;3.63;2.33;;;;;;;;;;4997331;28;20052;-67
2024/01/01 03:27:36;;;;;;;3.58;2.70;;;;;;;;;;4996583;28;20042;-68
2024/01/01 03:30:05;;;;;;;2.50;2.20;;;;;;;;;;4997064;28;20064;-66
2024/01/01 03:32:35;;;;;;;4.43;2.55;;;;;;;;;;4997219;28;20728;-68
2024/01/01 03:35:00;;;;;;;2.33;2.05;;;;;;;;;;4998877;28;20072;-66
2024/01/01 03:37:26;;;;;;;5.68;3.08;;;;;;;;;;4997334;28;20038;-66
2024/01/01 03:39:52;;;;;;;3.72;2.80;;;;;;;;;;4998468;28;20723;-65
2024/01/01 03:42:17;;;;;;;5.93;2.47;;;;;;;;;;4998436;28;20042;-66
2024/01/01 03:44:42;;;;;;;12.50;3.90;;;;;;;;;;4998070;28;20142;-63
2024/01/01 03:47:08;;;;;;;5.35;2.70;;;;;;;;;;4995954;28;20049;-66
2024/01/01 03:49:33;;;;;;;4.00;2.30;;;;;;;;;;4998908;28;20499;-65
2024/01/01 03:51:59;;;;;;;4.43;2.78;;;;;;;;;;4996433;28;20042;-62
2024/01/01 03:54:25;;;;;;;7.10;3.10;;;;;;;;;;4997264;28;20156;-62
2024/01/01 03:56:50;;;;;;;4.93;2.97;;;;;;;;;;4997943;28;20145;-67
2024/01/01 03:59:16;;;;;;;5.03;2.90;;;;;;;;;;4996583;28;20049;-66
2024/01/01 04:01:41;;;;;;;3.67;2.50;;;;;;;;;;4997124;28;20105;-63
2024/01/01 04:04:06;;;;;;;3.97;2.78;;;;;;;;;;4995836;28;20053;-65
2024/01/01 04:06:32;;;;;;;5.38;2.90;;;;;;;;;;4996309;28;20041;-64
2024/01/01 04:08:58;;;;;;;2.72;2.08;;;;;;;;;;4997006;28;20133;-65
2024/01/01 04:11:23;;;;;;;8.10;2.35;;;;;;;;;;4997482;28;20662;-65
2024/01/01 04:13:48;;;;;;;10.38;2.63;;;;;;;;;;4997621;28;20445;-62
2024/01/01 04:16:14;;;;;;;2.97;1.95;;;;;;;;;;4995217;28;20133;-65
2024/01/01 04:18:39;;;;;;;6.05;2.28;;;;;;;;;;4997968;28;20134;-62
2024/01/01 04:21:05;;;;;;;1.35;0.88;;;;;;;;;;4996423;28;20145;-65
2024/01/01 04:23:30;;;;;;;5.03;2.40;;;;;;;;;;4997739;28;20045;-63
2024/01/01 04:25:55;;;;;;;4.70;2.80;;;;;;;;;;4997792;28;20081;-65
2024/01/01 04:28:21;;;;;;;1.52;1.42;;;;;;;;;;4996286;28;20845;-64
2024/01/01 04:30:46;;;;;;;2.55;1.98;;;;;;;;;;4997971;28;20045;-65
2024/01/01 04:33:11;;;;;;;1.50;1.17;;;;;;;;;;4997090;28;20934;-64
2024/01/01 04:35:37;;;;;;;3.08;2.13;;;;;;;;;;4998056;28;20149;-64
2024/01/01 04:38:03;;;;;;;1.35;1.17;;;;;;;;;;4996210;28;20046;-64
2024/01/01 04:40:28;;;;;;;1.63;1.52;;;;;;;;;;4996027;28;20099;-65
2024/01/01 04:42:55;;;;;;;1.52;1.30;;;;;;;;;;4997404;28;20137;-64
2024/01/01 04:45:20;;;;;;;2.65;1.70;;;;;;;;;;4997412;28;20061;-63
2024/01/01 04:47:45;;;;;;;1.13;0.88;;;;;;;;;;4995535;28;20042;-65
2024/01/01 04:50:12;;;;;;;2.97;1.50;;;;;;;;;;4995646;28;20053;-63
2024/01/01 04:52:37;;;;;;;1.52;1.42;;;;;;;;;;4997834;28;20162;-66
2024/01/01 04:55:02;;;;;;;1.45;1.20;;;;;;;;;;4993115;28;20667;-61
2024/01/01 04:57:28;;;;;;;13.63;1.52;;;;;;;;;;4996246;28;20566;-64
2024/01/01 04:59:53;;;;;;;2.80;1.45;;;;;;;;;;4997065;28;20150;-66
2024/01/01 05:02:19;;;;;;;6.40;1.42;;;;;;;;;;4996231;28;20046;-64
2024/01/01 05:04:44;;;;;;;1.65;1.38;;;;;;;;;;4997405;28;20184;-64
2024/01/01 05:07:09;;;;;;;2.78;1.67;;;;;;;;;;4996814;28;20053;-64
2024/01/01 05:09:35;;;;;;;1.50;1.27;;;;;;;;;;4997510;28;20041;-66
2024/01/01 05:12:00;;;;;;;1.00;0.88;;;;;;;;;;4996103;28;20145;-62
2024/01/01 05:14:26;;;;;;;2.08;1.00;;;;;;;;;;4996568;28;20057;-64
2024/01/01 05:16:51;;;;;;;2.78;0.90;;;;;;;;;;4996989;28;20056;-64
2024/01/01 05:19:16;;;;;;;2.53;1.30;;;;;;;;;;4996559;28;20050;-64
2024/01/01 05:21:42;;;;;;;3.20;1.30;;;;;;;;;;4995833;28;20128;-63
2024/01/01 05:24:07;;;;;;;1.25;1.10;;;;;;;;;;4995303;28;20503;-66
2024/01/01 05:26:33;;;;;;;3.40;1.48;;;;;;;;;;4997018;28;20056;-64
2024/01/01 05:28:58;;;;;;;2.63;1.40;;;;;;;;;;4996819;28;20049;-63
2024/01/01 05:31:23;;;;;;;1.45;1.10;;;;;;;;;;4996532;28;20145;-66
2024/01/01 05:33:49;;;;;;;1.90;1.10;;;;;;;;;;4995644;28;20046;-63
2024/01/01 05:36:14;;;;;;;2.60;1.13;;;;;;;;;;4996369;28;20054;-65
2024/01/01 05:38:40;;;;;;;2.22;1.05;;;;;;;;;;4996650;28;20153;-65
2024/01/01 05:41:06;;;;;;;2.45;1.20;;;;;;;;;;4997089;28;20478;-63
2024/01/01 05:43:33;;;;;;;2.60;1.17;;;;;;;;;;4996182;28;20053;-65
2024/01/01 05:45:59;;;;;;;4.03;1.17;;;;;;;;;;4995569;28;20050;-66
2024/01/01 05:48:25;;;;;;;1.60;1.10;;;;;;;;;;4995673;28;20065;-64
2024/01/01 05:50:50;;;;;;;1.52;1.10;;;;;;;;;;5000020;28;20045;-65
2024/01/01 05:53:16;;;;;;;2.40;1.35;;;;;;;;;;5000599;28;20046;-64
2024/01/01 05:55:41;;;;;;;2.28;1.42;;;;;;;;;;4999992;28;20133;-63
2024/01/01 05:58:07;;;;;;;1.17;1.08;;;;;;;;;;4982119;28;20507;-65
2024/01/01 06:00:36;;;;;;;0.95;0.88;;;;;;;;;;4999737;28;20045;-64
2024/01/01 06:03:04;;;;;;;1.33;0.80;;;;;;;;;;4999135;28;20046;-64
2024/01/01 06:05:29;;;;;;;5.10;1.33;;;;;;;;;;5000078;28;20100;-66
2024/01/01 06:07:55;;;;;;;4.95;1.20;;;;;;;;;;4999214;28;20050;-63
2024/01/01 06:10:20;;;;;;;2.50;1.40;;;;;;;;;;5000056;28;20675;-65
2024/01/01 06:12:45;;;;;;;3.03;1.10;;;;;;;;;;5000146;28;20414;-65
2024/01/01 06:15:12;;;;;;;1.30;1.02;;;;;;;;;;4999522;28;20061;-64
2024/01/01 06:17:38;;;;;;;1.85;0.95;;;;;;;;;;4999071;28;20050;-65
2024/01/01 06:20:04;;;;;;;2.63;1.17;;;;;;;;;;4999634;28;20050;-64
2024/01/01 06:22:30;;;;;;;5.82;1.02;;;;;;;;;;4999456;28;20046;-64
2024/01/01 06:24:55;;;;;;;0.70;0.70;;;;;;;;;;4999942;28;20068;-65
2024/01/01 06:27:21;;;;;;;0.82;0.82;;;;;;;;;;4999760;28;20080;-64
2024/01/01 06:29:47;;;;;;;2.08;0.60;;;;;;;;;;4999159;28;20045;-64
2024/01/01 06:32:12;;;;;;;0.60;0.60;;;;;;;;;;4998512;28;20054;-64
2024/01/01 06:34:37;;;;;;;0.70;0.70;;;;;;;;;;4999945;28;20042;-64
2024/01/01 06:37:03;;;;;;;1.77;1.08;;;;;;;;;;4999799;28;20070;-65
2024/01/01 06:39:28;;;;;;;3.22;0.60;;;;;;;;;;4997950;28;20678;-62
2024/01/01 06:41:53;;;;;;;2.03;0.80;;;;;;;;;;4999602;28;20099;-66
2024/01/01 06:44:20;;;;;;;0.73;0.60;;;;;;;;;;4999180;28;20052;-63
2024/01/01 06:46:45;;;;;;;4.05;0.90;;;;;;;;;;4999489;28;20041;-66
2024/01/01 06:49:11;;;;;;;0.57;0.55;;;;;;;;;;4998410;28;20103;-62
2024/01/01 06:51:36;;;;;;;1.15;1.05;;;;;;;;;;4998529;28;20103;-64
2024/01/01 06:54:01;;;;;;;1.30;1.20;;;;;;;;;;4998766;28;20046;-64
2024/01/01 06:56:27;;;;;;;4.93;1.07;;;;;;;;;;4996381;28;20092;-61
2024/01/01 06:58:52;;;;;;;0.85;0.82;;;;;;;;;;4999110;28;20048;-64
2024/01/01 07:01:18;;;;;;;1.50;1.20;;;;;;;;;;4997392;28;20046;-64
2024/01/01 07:03:43;;;;;;;0.77;0.77;;;;;;;;;;4999164;28;20045;-66
2024/01/01 07:06:08;;;;;;;0.65;0.65;;;;;;;;;;4998745;28;20058;-65
2024/01/01 07:08:34;;;;;;;0.70;0.70;;;;;;;;;;4998563;28;20042;-67
2024/01/01 07:10:59;;;;;;;2.55;0.77;;;;;;;;;;4996980;28;21197;-65
2024/01/01 07:13:25;;;;;;;2.17;1.30;;;;;;;;;;4998157;28;20050;-67
2024/01/01 07:15:50;;;;;;;2.53;1.10;;;;;;;;;;4998879;28;20048;-67
2024/01/01 07:18:16;;;;;;;0.60;0.35;;;;;;;;;;4998322;28;20586;-64
2024/01/01 07:20:44;;;;;;;0.82;0.82;;;;;;;;;;4998824;28;20133;-65
2024/01/01 07:23:10;;;;;;;0.88;0.80;;;;;;;;;;4998554;28;20519;-66
2024/01/01 07:25:35;;;;;;;0.30;0.30;;;;;;;;;;4998320;28;20651;-67
2024/01/01 07:28:01;;;;;;;0.88;0.88;;;;;;;;;;4998195;28;20050;-65
2024/01/01 07:30:27;;;;;;;0.52;0.52;;;;;;;;;;4998179;28;20119;-66
2024/01/01 07:32:52;;;;;;;1.75;1.20;;;;;;;;;;4998300;28;20143;-65
2024/01/01 07:35:18;;;;;;;1.25;0.95;;;;;;;;;;4996810;28;20434;-67
2024/01/01 07:37:45;;;;;;;0.43;0.43;;;;;;;;;;4997656;28;20121;-66
2024/01/01 07:40:11;;;;;;;0.80;0.70;;;;;;;;;;4997471;28;20672;-64
2024/01/01 07:42:36;;;;;;;1.35;0.93;;;;;;;;;;4997764;28;20037;-65
2024/01/01 07:45:02;;;;;;;0.82;0.57;;;;;;;;;;4997604;28;20046;-65
2024/01/01 07:47:28;;;;;;;0.90;0.88;;;;;;;;;;4997380;28;20962;-67
2024/01/01 07:49:53;;;;;;;4.88;0.90;;;;;;;;;;4997657;28;21054;-64
2024/01/01 07:52:18;;;;;;;0.65;0.60;;;;;;;;;;4996168;28;20406;-64
2024/01/01 07:54:44;;;;;;;1.63;0.95;;;;;;;;;;4997134;28;20041;-64
2024/01/01 07:57:09;;;;;;;1.85;0.77;;;;;;;;;;4996207;28;21129;-66
2024/01/01 07:59:35;;;;;;;1.02;1.00;;;;;;;;;;4994878;28;20050;-64
2024/01/01 08:02:00;;;;;;;3.15;1.10;;;;;;;;;;4996415;28;20041;-67
2024/01/01 08:04:26;;;;;;;2.25;0.73;;;;;;;;;;4997277;28;20069;-65
2024/01/01 08:06:52;;;;;;;0.95;0.65;;;;;;;;;;4997111;28;20057;-66
2024/01/01 08:09:17;;;;;;;3.13;1.00;;;;;;;;;;4997705;28;20733;-65
2024/01/01 08:11:42;;;;;;;1.60;0.65;;;;;;;;;;4995960;28;20468;-69
2024/01/01 08:14:08;;;;;;;1.27;0.70;;;;;;;;;;4996167;28;20934;-67
2024/01/01 08:16:34;;;;;;;1.02;0.80;;;;;;;;;;4993387;28;20038;-70
2024/01/01 08:18:59;;;;;;;0.75;0.70;;;;;;;;;;4995404;28;20061;-71
2024/01/01 08:21:25;;;;;;;0.60;0.60;;;;;;;;;;4994468;28;20521;-70
2024/01/01 08:23:50;;;;;;;2.92;1.00;;;;;;;;;;4995493;28;20041;-72
2024/01/01 08:26:16;;;;;;;2.33;0.70;;;;;;;;;;4996279;28;20498;-69
2024/01/01 08:28:41;;;;;;;2.45;0.95;;;;;;;;;;4994194;28;20608;-70
2024/01/01 08:31:07;;;;;;;3.22;1.23;;;;;;;;;;4996261;28;20041;-68
2024/01/01 08:33:32;;;;;;;1.92;1.25;;;;;;;;;;4995702;28;20594;-69
2024/01/01 08:35:57;;;;;;;2.20;1.40;;;;;;;;;;4996055;28;20050;-69
2024/01/01 08:38:24;;;;;;;1.67;0.90;;;;;;;;;;4996022;28;20061;-67
2024/01/01 08:40:51;;;;;;;1.58;1.00;;;;;;;;;;4994556;28;20665;-70
2024/01/01 08:43:16;;;;;;;1.05;0.60;;;;;;;;;;4996182;28;20080;-72
2024/01/01 08:45:41;;;;;;;1.15;0.90;;;;;;;;;;4989707;28;21786;-67
2024/01/01 08:48:07;;;;;;;1.60;0.95;;;;;;;;;;4990839;28;20046;-70
2024/01/01 08:50:33;;;;;;;1.38;0.65;;;;;;;;;;4991467;28;20180;-70
2024/01/01 08:52:58;;;;;;;2.03;0.75;;;;;;;;;;4993660;28;20054;-69
2024/01/01 08:55:24;;;;;;;0.43;0.43;;;;;;;;;;4992848;28;20104;-69
2024/01/01 08:57:49;;;;;;;0.82;0.65;;;;;;;;;;4993312;28;20046;-69
2024/01/01 09:00:16;;;;;;;0.70;0.70;;;;;;;;;;4992894;28;20827;-69
2024/01/01 09:02:42;;;;;;;3.38;0.90;;;;;;;;;;4992823;28;21566;-70
2024/01/01 09:05:07;;;;;;;0.77;0.77;;;;;;;;;;4994442;28;20050;-67
2024/01/01 09:07:33;;;;;;;1.02;0.65;;;;;;;;;;4993398;28;20048;-68
2024/01/01 09:10:00;;;;;;;0.82;0.82;;;;;;;;;;4993779;28;20053;-69
2024/01/01 09:12:26;;;;;;;2.97;0.98;;;;;;;;;;4993918;28;20045;-66
2024/01/01 09:14:52;;;;;;;1.88;0.90;;;;;;;;;;4994928;28;20037;-67
2024/01/01 09:17:17;;;;;;;0.70;0.70;;;;;;;;;;4994751;28;20053;-67
2024/01/01 09:19:44;;;;;;;1.75;0.73;;;;;;;;;;4992749;28;20076;-67
2024/01/01 09:22:09;;;;;;;1.02;0.70;;;;;;;;;;4994650;28;20041;-67
2024/01/01 09:24:35;;;;;;;2.75;1.13;;;;;;;;;;4983906;28;20095;-66
2024/01/01 09:27:01;;;;;;;3.00;1.00;;;;;;;;;;4995115;28;20099;-68
2024/01/01 09:29:26;;;;;;;1.58;0.85;;;;;;;;;;4994481;28;20371;-67
2024/01/01 09:31:52;;;;;;;2.42;0.90;;;;;;;;;;4994622;28;20038;-70
2024/01/01 09:34:17;;;;;;;0.80;0.60;;;;;;;;;;4993057;28;20144;-67
2024/01/01 09:36:43;;;;;;;5.72;1.00;;;;;;;;;;4992397;28;20076;-68
2024/01/01 09:39:08;;;;;;;4.53;0.80;;;;;;;;;;4994008;28;20042;-67
2024/01/01 09:41:34;;;;;;;1.13;0.70;;;;;;;;;;4990808;28;20914;-66
2024/01/01 09:44:01;;;;;;;1.50;0.90;;;;;;;;;;4993643;28;20096;-69
2024/01/01 09:46:32;;;;;;;2.30;1.05;;;;;;;;;;4991640;28;20129;-66
2024/01/01 09:48:59;;;;;;;0.60;0.60;;;;;;;;;;4993605;28;20549;-68
2024/01/01 09:51:24;;;;;;;1.70;0.80;;;;;;;;;;4994209;28;20634;-67
2024/01/01 09:53:51;;;;;;;0.80;0.80;;;;;;;;;;4991921;28;20084;-66
2024/01/01 09:56:17;;;;;;;0.70;0.70;;;;;;;;;;4975805;28;20038;-66
2024/01/01 09:58:46;;;;;;;1.42;0.70;;;;;;;;;;4992800;28;20049;-68
2024/01/01 10:01:16;;;;;;;2.38;0.75;;;;;;;;;;4994643;28;20046;-69
2024/01/01 10:03:42;;;;;;;1.08;0.80;;;;;;;;;;4992238;28;20049;-70
2024/01/01 10:06:11;;;;;;;1.63;0.73;;;;;;;;;;4994503;28;20097;-69
2024/01/01 10:08:38;;;;;;;1.77;0.75;;;;;;;;;;4992538;28;20418;-69
2024/01/01 10:11:20;;;;;;;1.13;0.80;;;;;;;;;;4994124;28;20711;-68
2024/01/01 10:13:49;;;;;;;0.90;0.70;;;;;;;;;;4992480;28;20083;-69
2024/01/01 10:16:25;;;;;;;0.75;0.70;;;;;;;;;;4991785;28;20049;-68
2024/01/01 10:18:56;;;;;;;2.10;0.80;;;;;;;;;;4989849;28;20061;-68
2024/01/01 10:21:27;;;;;;;4.85;0.90;;;;;;;;;;4993847;28;20521;-69
2024/01/01 10:23:52;;;;;;;1.85;0.70;;;;;;;;;;4990558;28;20054;-69
2024/01/01 10:26:18;;;;;;;3.08;0.95;;;;;;;;;;4992531;28;20046;-67
2024/01/01 10:28:43;;;;;;;0.70;0.60;;;;;;;;;;4991860;28;20480;-69
2024/01/01 10:31:12;;;;;;;2.72;0.85;;;;;;;;;;4993331;28;20053;-67
2024/01/01 10:33:39;;;;;;;0.60;0.60;;;;;;;;;;4993168;28;20129;-70
2024/01/01 10:36:05;;;;;;;0.85;0.75;;;;;;;;;;4993149;28;20049;-68
2024/01/01 10:38:32;;;;;;;0.45;0.45;;;;;;;;;;4996650;28;20089;-64
2024/01/01 10:40:58;;;;;;;3.05;0.75;;;;;;;;;;4995298;28;20057;-65
2024/01/01 10:43:30;;;;;;;0.85;0.75;;;;;;;;;;4995836;28;20046;-67
2024/01/01 10:46:03;;;;;;;1.08;0.57;;;;;;;;;;4993472;28;20487;-68
2024/01/01 10:48:34;;;;;;;1.20;0.60;;;;;;;;;;5010116;28;20447;-65
2024/01/01 10:51:07;;;;;;;1.15;0.65;;;;;;;;;;4995962;28;20648;-69
2024/01/01 10:53:54;;;;;;;4.95;1.17;;;;;;;;;;4997961;28;20558;-66
2024/01/01 10:56:44;;;;;;;1.05;0.98;;;;;;;;;;4998470;28;20053;-69
2024/01/01 10:59:20;;;;;;;1.00;0.90;;;;;;;;;;4997915;28;20141;-69
2024/01/01 11:01:48;;;;;;;3.03;0.90;;;;;;;;;;4997803;28;20053;-67
2024/01/01 11:04:15;;;;;;;1.73;0.70;;;;;;;;;;4995571;28;20494;-68
2024/01/01 11:06:44;;;;;;;1.40;0.47;;;;;;;;;;4996871;28;20503;-66
2024/01/01 11:09:36;;;;;;;2.05;0.73;;;;;;;;;;4996337;28;20048;-68
2024/01/01 11:12:02;;;;;;;2.80;1.30;;;;;;;;;;4995189;28;20545;-67
2024/01/01 11:14:31;;;;;;;4.28;1.10;;;;;;;;;;4995975;28;20328;-67
2024/01/01 11:16:58;;;;;;;1.52;0.70;;;;;;;;;;4996806;28;21276;-66
2024/01/01 11:19:43;;;;;;;2.13;0.90;;;;;;;;;;4997621;28;20061;-67
2024/01/01 11:22:18;;;;;;;5.97;1.30;;;;;;;;;;4996436;28;20049;-68
2024/01/01 11:24:45;;;;;;;2.65;0.77;;;;;;;;;;4995655;28;20042;-67
2024/01/01 11:27:26;;;;;;;3.20;0.82;;;;;;;;;;4996682;28;20070;-65
2024/01/01 11:29:52;;;;;;;1.25;0.60;;;;;;;;;;4995092;28;20049;-65
2024/01/01 11:32:18;;;;;;;2.28;1.17;;;;;;;;;;4997249;28;20049;-67
2024/01/01 11:34:44;;;;;;;1.23;0.50;;;;;;;;;;4995980;28;20617;-65
2024/01/01 11:37:18;;;;;;;1.02;0.73;;;;;;;;;;4995253;28;20046;-67
2024/01/01 11:39:43;;;;;;;3.40;1.02;;;;;;;;;;4996976;28;20049;-67
2024/01/01 11:42:09;;;;;;;2.85;0.60;;;;;;;;;;4996965;28;20123;-69
2024/01/01 11:44:34;;;;;;;1.95;0.60;;;;;;;;;;4996364;28;20041;-69
2024/01/01 11:47:00;;;;;;;3.28;1.10;;;;;;;;;;4994681;28;20123;-65
2024/01/01 11:49:25;;;;;;;2.72;0.63;;;;;;;;;;4996626;28;20053;-67
2024/01/01 11:51:57;;;;;;;0.85;0.60;;;;;;;;;;4995151;28;20052;-64
2024/01/01 11:54:26;;;;;;;1.60;0.60;;;;;;;;;;4996692;28;20049;-66
2024/01/01 11:56:54;;;;;;;2.33;0.88;;;;;;;;;;4996209;28;20048;-66
2024/01/01 11:59:22;;;;;;;1.60;0.70;;;;;;;;;;4996438;28;20111;-66
2024/01/01 12:01:48;;;;;;;1.50;0.65;;;;;;;;;;4996222;28;20148;-67
2024/01/01 12:04:14;;;;;;;0.40;0.40;;;;;;;;;;4997305;28;20438;-68
2024/01/01 12:06:40;;;;;;;3.50;0.90;;;;;;;;;;4996498;28;20042;-67
2024/01/01 12:09:12;;;;;;;2.10;0.57;;;;;;;;;;4996133;28;20542;-69
2024/01/01 12:11:41;;;;;;;;;;;;;;;;;;4997082;28;20045;-70
2024/01/01 12:14:07;;;;;;;0.43;0.43;;;;;;;;;;4996344;28;19921;-69
2024/01/01 12:16:33;;;;;;;0.60;0.50;;;;;;;;;;4996664;28;20430;-68
2024/01/01 12:19:04;;;;;;;2.60;0.95;;;;;;;;;;4995268;28;20049;-69
2024/01/01 12:21:41;;;;;;;1.27;0.68;;;;;;;;;;4996566;28;20128;-68
2024/01/01 12:24:08;;;;;;;2.35;0.63;;;;;;;;;;4996721;28;20130;-70
2024/01/01 12:26:35;;;;;;;3.13;0.93;;;;;;;;;;4995630;28;20570;-69
2024/01/01 12:29:19;;;;;;;2.25;0.70;;;;;;;;;;4995323;28;20149;-67
2024/01/01 12:31:46;;;;;;;0.88;0.80;;;;;;;;;;4995729;28;20070;-65
2024/01/01 12:34:16;;;;;;;4.30;1.00;;;;;;;;;;4996388;28;20042;-69
2024/01/01 12:36:45;;;;;;;4.57;0.95;;;;;;;;;;4992599;28;20173;-70
2024/01/01 12:39:11;;;;;;;3.22;0.90;;;;;;;;;;4996526;28;20045;-69
2024/01/01 12:41:37;;;;;;;3.17;0.68;;;;;;;;;;4994451;28;20144;-68
2024/01/01 12:44:02;;;;;;;0.63;0.55;;;;;;;;;;4995161;28;20537;-69
2024/01/01 12:46:28;;;;;;;2.53;0.98;;;;;;;;;;4996643;28;20050;-67
2024/01/01 12:48:54;;;;;;;6.55;0.90;;;;;;;;;;4996568;28;20169;-69
2024/01/01 12:51:22;;;;;;;2.85;0.70;;;;;;;;;;4993752;28;20053;-67
2024/01/01 12:53:54;;;;;;;1.95;0.82;;;;;;;;;;4995464;28;20034;-68
2024/01/01 12:56:20;;;;;;;1.65;1.17;;;;;;;;;;4996226;28;21579;-67
2024/01/01 12:58:46;;;;;;;1.08;0.73;;;;;;;;;;4995637;28;20042;-68
2024/01/01 13:01:12;;;;;;;1.73;0.70;;;;;;;;;;4994278;28;20387;-67
2024/01/01 13:03:44;;;;;;;1.90;0.70;;;;;;;;;;4995977;28;20541;-67
2024/01/01 13:06:16;;;;;;;1.58;0.50;;;;;;;;;;4996452;28;20041;-69
2024/01/01 13:08:43;;;;;;;3.15;1.27;;;;;;;;;;4994974;28;20037;-67
2024/01/01 13:11:10;;;;;;;1.73;0.82;;;;;;;;;;4996241;28;20048;-68
2024/01/01 13:13:36;;;;;;;4.93;0.68;;;;;;;;;;4996438;28;20388;-69
2024/01/01 13:16:02;;;;;;;1.98;1.00;;;;;;;;;;4995127;28;20092;-66
2024/01/01 13:18:29;;;;;;;1.33;0.70;;;;;;;;;;4996488;28;20132;-69
2024/01/01 13:20:59;;;;;;;1.05;0.70;;;;;;;;;;4996677;28;20065;-69
2024/01/01 13:23:24;;;;;;;0.52;0.52;;;;;;;;;;4996790;28;20482;-69
2024/01/01 13:25:51;;;;;;;0.93;0.77;;;;;;;;;;4993963;28;20944;-69
2024/01/01 13:28:19;;;;;;;1.23;0.80;;;;;;;;;;4996445;28;20042;-68
2024/01/01 13:30:46;;;;;;;2.28;0.95;;;;;;;;;;4995902;28;20136;-66
2024/01/01 13:33:12;;;;;;;3.47;0.60;;;;;;;;;;4995287;28;20060;-67
2024/01/01 13:35:42;;;;;;;1.05;0.40;;;;;;;;;;4996456;28;20579;-67
2024/01/01 13:38:07;;;;;;;2.85;0.60;;;;;;;;;;4995312;28;20058;-67
2024/01/01 13:40:36;;;;;;;2.13;0.88;;;;;;;;;;4996063;28;20046;-67
2024/01/01 13:43:03;;;;;;;1.30;0.73;;;;;;;;;;4997374;28;20052;-67
2024/01/01 13:45:28;;;;;;;5.43;1.00;;;;;;;;;;4986219;28;20058;-69
2024/01/01 13:47:54;;;;;;;1.67;0.88;;;;;;;;;;4991378;28;20132;-68
2024/01/01 13:50:19;;;;;;;3.35;0.98;;;;;;;;;;4992859;28;20049;-67
2024/01/01 13:52:45;;;;;;;3.95;0.90;;;;;;;;;;4993186;28;20453;-69
2024/01/01 13:55:11;;;;;;;3.28;0.85;;;;;;;;;;4991972;28;20064;-69
2024/01/01 13:57:37;;;;;;;2.42;0.75;;;;;;;;;;4991553;28;20139;-69
2024/01/01 14:00:05;;;;;;;1.77;0.90;;;;;;;;;;4992393;28;20049;-68
2024/01/01 14:02:30;;;;;;;2.30;0.93;;;;;;;;;;4993717;28;20050;-68
2024/01/01 14:04:56;;;;;;;5.20;1.10;;;;;;;;;;4993570;28;20337;-68
2024/01/01 14:07:21;;;;;;;2.63;0.77;;;;;;;;;;4993166;28;20049;-67
2024/01/01 14:09:47;;;;;;;3.70;0.73;;;;;;;;;;4992962;28;20050;-67
2024/01/01 14:12:12;;;;;;;2.03;0.90;;;;;;;;;;4998340;28;20085;-69
2024/01/01 14:14:42;;;;;;;4.00;1.23;;;;;;;;;;4997124;28;20053;-69
2024/01/01 14:17:08;;;;;;;0.65;0.52;;;;;;;;;;4996816;28;20038;-68
2024/01/01 14:19:34;;;;;;;2.80;1.25;;;;;;;;;;4999455;28;20049;-69
2024/01/01 14:21:59;;;;;;;1.35;0.80;;;;;;;;;;4996598;28;20419;-69
2024/01/01 14:24:24;;;;;;;1.50;0.70;;;;;;;;;;4998846;28;20172;-69
2024/01/01 14:26:51;;;;;;;1.15;0.55;;;;;;;;;;4979807;28;20074;-69
2024/01/01 14:29:16;;;;;;;0.85;0.70;;;;;;;;;;4998402;28;20038;-69
2024/01/01 14:31:43;;;;;;;3.53;1.05;;;;;;;;;;4998289;28;20053;-67
2024/01/01 14:34:08;;;;;;;1.58;0.85;;;;;;;;;;4998607;28;20743;-69
2024/01/01 14:36:33;;;;;;;3.13;0.95;;;;;;;;;;4998350;28;20038;-69